Racecast

Lauren Smith

Ponderosa (OR) · 12 · CVCCA D3SJS D3 · Compare head to head

Athlete rating 96.7 2013 XC season
Best race 105.1 TF
Races 45
Seasons 4 2010 — 2013

RankedNation #81355·CA #10842·CA D3 #4003·SJS #1119·SJS D3 #424·CVC #114·Team #65 ?

Speed rating — all races

Cross Country

XC speed rating

2013 XC 95.2

Ponderosa (OR) · Grade 12

Date Meet Event Result Place Rating Difficulty PR/SR Flags
2013-10-19 Willow Hills Reservoir Course 5000m 26:44.7 42nd · 4th on team 96.5 +0.045 CSR
2013-10-09 Granite Park 5000m 25:32 64th · 7th on team 96.8 +0.002 ★CR SR CSR
2013-09-13 North Tahoe HS 5310m 32:09.2 62nd · 6th on team 98.2 +0.200 ★PR ★CR SR CSR RSR
2013-09-07 Lagoon Valley Park 4828m 28:26 108th · 7th on team 89.4 +0.056 ★CR SR CSR RSR

2012 XC 99.2

Ponderosa (OR) · Grade 11

Date Meet Event Result Place Rating Difficulty PR/SR Flags
2012-10-17 Granite Park 5000m 25:55 63rd · 8th on team 95.8 +0.002 CR CSR
2012-10-12 Woodward Park 5000m 24:25 47th · 8th on team 100.1 +0.013 ★PR ★CR SR CSR
2012-09-08 Shadow Mountain Park 4000m 20:31 114th · 7th on team 101.7 +0.060 ★PR ★CR SR CSR RSR

2011 XC 93.5

Ponderosa (OR) · Grade 10

Date Meet Event Result Place Rating Difficulty PR/SR Flags
2011-11-05 Calaveras County Fairgrounds 4828m 25:28 113th · 8th on team 99.1 +0.065 ★CR SR CSR RSR
2011-10-15 Willow Hills Reservoir Course 5000m 28:36.3 146th · 7th on team 91.3 +0.045 CSR
2011-10-08 Woodward Park 5000m 26:57 199th · 7th on team 93.2 +0.013 SR CSR
2011-09-24 Calaveras County Fairgrounds 4828m 30:09 138th · 3rd on team 84.9 +0.065 SR CSR
2011-09-16 North Tahoe HS 5300m 32:57.3 93rd · 10th on team 96.0 +0.200 SR CSR
2011-09-03 Lagoon Valley Park 3218m 17:48.4 37th · 5th on team 96.7 +0.121 ★PR ★CR SR CSR RSR

2010 XC 98.2

Ponderosa (OR) · Grade 9

Date Meet Event Result Place Rating Difficulty PR/SR Flags
2010-11-27 Woodward Park 5000m 24:57 192nd · 7th on team 100.4 +0.013
2010-11-13 Willow Hills Reservoir Course 5000m 25:52 76th · 7th on team 100.5 +0.045
2010-11-06 Calaveras County Fairgrounds 4828m 25:59 131st · 7th on team 98.8 +0.065 CR CSR
2010-10-30 Willow Hills Reservoir Course 5000m 25:30 48th · 8th on team 101.3 +0.045 ★CR CSR
2010-10-16 Willow Hills Reservoir Course 5000m 27:37.9 181st · 7th on team 94.4 +0.045 CR CSR
2010-10-09 Woodward Park 5000m 24:57 173rd · 7th on team 100.9 +0.013 PR CR SR CSR
2010-10-06 Granite Park 4828m 24:54 47th · 7th on team 97.2 +0.012 ★PR ★CR SR CSR
2010-09-25 Stanford University Golf Course 5000m 27:35 199th · 5th on team 91.3 +0.002 PR ★CR SR CSR
2010-09-17 North Tahoe HS 5300m 30:20.7 99th · 7th on team 104.4 +0.200 ★PR ★CR R SR CSR RSR
2010-09-04 Lagoon Valley Park 3218m 18:32.3 45th · 3rd on team 93.2 +0.121 PR CR R SR CSR RSR

Track & Field

TF speed rating

2012 TF 99.5

Ponderosa (OR) · Grade 10

Date Meet Event Result Place Rating Difficulty PR/SR Flags
2012-05-08 Delta River League Frosh/Soph Championships 1600m 7:03.01 23rd · 1st on team 98.2 -0.022
2012-05-08 Delta River League Frosh/Soph Championships 3200m 16:36.06 11th · 1st on team 89.7 -0.022
2012-04-25 Pleasant Grove/Ponderosa/Sheldon 1600m 6:35.8 4th · 3rd on team 103.1 -0.031
2012-04-18 Delta River League Meet-Folsom vs Ponderosa 3200m 15:06.5 3rd · 3rd on team 98.6 -0.022
2012-04-18 Delta River League Meet-Folsom vs Ponderosa 1600m 6:54.8 3rd · 3rd on team 100.2 -0.022
2012-04-14 Depth Charge 3200m 14:47.25 1st · 1st on team 100.0 -0.020 SR
2012-04-14 Depth Charge 1600m 7:02.13 1st · 1st on team 98.2 -0.020
2012-03-31 Ron Ruptier Memorial Invite (1st Annual) 1600m 6:40.57 7th · 3rd on team 104.2 -0.022
2012-03-28 Oak Ridge vs Ponderosa 3200m 15:17.5 7th · 2nd on team 97.7 -0.018 SR
2012-03-28 Oak Ridge vs Ponderosa 1600m 6:38.1 6th · 3rd on team 105.1 -0.018 ★R RSR
2012-03-07 Bella Vista - Ponderosa Dual 800m 3:05.27 12th · 4th on team 98.7 -0.036 ★PR SR RSR
2012-03-07 Bella Vista - Ponderosa Dual 1600m 6:34.05 5th · 3rd on team 104.5 -0.036 ★PR R SR RSR
2012-03-07 Bella Vista - Ponderosa Dual 3200m 15:32 2nd · 2nd on team 94.9 -0.036 SR

2011 TF 96.2

Ponderosa (OR) · Grade 9

Date Meet Event Result Place Rating Difficulty PR/SR Flags
2011-05-12 Delta River League Varsity Championships 1600m 7:02.02 16th · 1st on team 98.5 -0.020
2011-05-12 Delta River League Varsity Championships 3200m 15:33.6 8th · 1st on team 95.6 -0.020
2011-05-10 Delta River League F/S Championships 1600m 7:02.02 16th · 1st on team 98.4 -0.020 PR SR
2011-05-10 Delta River League F/S Championships 3200m 15:33.6 8th · 1st on team 95.5 -0.020
2011-05-04 Ponderosa, Pleasant Grove vs. Jesuit, St. Francis 1600m 7:14.82 9th · 1st on team 94.7 -0.034
2011-05-04 Ponderosa, Pleasant Grove vs. Jesuit, St. Francis 3200m 14:19.04 5th · 1st on team 103.2 -0.034 ★PR SR RSR
2011-05-04 Ponderosa, Pleasant Grove vs. Jesuit, St. Francis 800m 3:21.78 9th · 1st on team 90.5 -0.034
2011-04-29 Cougar Invitational @ El Dorado 800m 3:19.62 14th · 1st on team 93.0 -0.018 PR SR RSR
2011-04-29 Cougar Invitational @ El Dorado 1600m 7:14.52 7th · 1st on team 96.2 -0.018 PR SR RSR